createdAt,value
2019-01-25T00:01:13.715Z,63.96
2019-01-25T00:03:43.480Z,63.85
2019-01-25T00:06:13.244Z,64.52
2019-01-25T00:08:42.743Z,65.40
2019-01-25T00:11:12.272Z,66.06
2019-01-25T00:13:41.899Z,66.68
2019-01-25T00:16:11.389Z,67.74
2019-01-25T00:18:40.942Z,68.74
2019-01-25T00:21:10.538Z,69.03
2019-01-25T00:23:40.072Z,69.03
2019-01-25T00:26:09.685Z,68.72
2019-01-25T00:28:39.253Z,68.95
2019-01-25T00:31:08.816Z,70.21
2019-01-25T00:33:38.322Z,70.17
2019-01-25T00:36:08.011Z,70.96
2019-01-25T00:38:37.522Z,71.11
2019-01-25T00:41:07.125Z,72.42
2019-01-25T00:43:36.689Z,72.67
2019-01-25T00:46:06.291Z,71.50
2019-01-25T00:48:35.876Z,71.60
2019-01-25T00:51:05.804Z,71.67
2019-01-25T00:53:35.435Z,73.47
2019-01-25T00:56:06.085Z,73.97
2019-01-25T00:58:35.693Z,72.30
2019-01-25T01:01:05.625Z,58.87
2019-01-25T01:03:35.611Z,53.93
2019-01-25T01:06:05.433Z,53.40
2019-01-25T01:08:34.955Z,54.05
2019-01-25T01:11:04.682Z,55.28
2019-01-25T01:13:34.196Z,54.29
2019-01-25T01:16:04.272Z,55.67
2019-01-25T01:18:33.881Z,56.58
2019-01-25T01:21:03.377Z,56.77
2019-01-25T01:23:32.874Z,56.66
2019-01-25T01:26:02.473Z,57.32
2019-01-25T01:28:31.974Z,57.26
2019-01-25T01:31:01.479Z,56.67
2019-01-25T01:33:31.025Z,56.35
2019-01-25T01:36:00.535Z,55.90
2019-01-25T01:38:30.082Z,56.04
2019-01-25T01:40:59.649Z,56.08
2019-01-25T01:43:29.175Z,56.29
2019-01-25T01:45:58.687Z,56.71
2019-01-25T01:48:28.232Z,57.17
2019-01-25T01:50:57.759Z,57.23
2019-01-25T01:53:27.269Z,56.86
2019-01-25T01:55:56.839Z,57.24
2019-01-25T01:58:26.391Z,64.41
2019-01-25T02:00:55.891Z,62.99
2019-01-25T02:03:25.396Z,62.46
2019-01-25T02:05:54.972Z,62.10
2019-01-25T02:08:24.471Z,60.71
2019-01-25T02:10:54.031Z,59.08
2019-01-25T02:13:23.535Z,59.20
2019-01-25T02:15:53.195Z,60.21
2019-01-25T02:18:22.908Z,61.92
2019-01-25T02:20:52.516Z,63.21
2019-01-25T02:23:22.016Z,63.98
2019-01-25T02:25:51.614Z,65.87
2019-01-25T02:28:21.111Z,65.20
2019-01-25T02:30:50.610Z,64.45
2019-01-25T02:33:20.154Z,64.28
2019-01-25T02:35:49.655Z,62.16
2019-01-25T02:38:19.155Z,57.96
2019-01-25T02:40:48.809Z,55.82
2019-01-25T02:43:18.314Z,56.33
2019-01-25T02:45:47.821Z,56.11
2019-01-25T02:48:17.379Z,55.72
2019-01-25T02:50:46.886Z,55.93
2019-01-25T02:53:16.388Z,55.52
2019-01-25T02:55:45.933Z,54.81
2019-01-25T02:58:15.448Z,54.39
2019-01-25T03:00:44.953Z,54.43
2019-01-25T03:03:14.517Z,54.51
2019-01-25T03:05:44.082Z,54.40
2019-01-25T03:08:13.593Z,54.63
2019-01-25T03:10:47.236Z,56.09
2019-01-25T03:13:14.439Z,56.42
2019-01-25T03:15:43.947Z,57.13
2019-01-25T03:18:13.511Z,56.88
2019-01-25T03:20:43.014Z,57.25
2019-01-25T03:23:12.572Z,56.98
2019-01-25T03:25:42.082Z,58.00
2019-01-25T03:28:11.579Z,57.75
2019-01-25T03:30:41.163Z,59.26
2019-01-25T03:33:10.699Z,61.16
2019-01-25T03:35:40.297Z,61.63
2019-01-25T03:38:11.454Z,60.92
2019-01-25T03:40:40.995Z,60.42
2019-01-25T03:43:10.525Z,61.02
2019-01-25T03:45:40.157Z,62.38
2019-01-25T03:48:10.017Z,63.19
2019-01-25T03:50:39.538Z,64.61
2019-01-25T03:53:09.136Z,65.91
2019-01-25T03:55:38.657Z,66.86
2019-01-25T03:58:08.196Z,67.30
2019-01-25T04:00:37.806Z,67.25
2019-01-25T04:03:07.873Z,68.14
2019-01-25T04:05:37.407Z,67.90
2019-01-25T04:08:07.110Z,67.04
2019-01-25T04:10:36.688Z,65.75
2019-01-25T04:13:06.631Z,65.58
2019-01-25T04:15:36.354Z,66.18
2019-01-25T04:18:07.142Z,66.21
2019-01-25T04:20:36.719Z,66.59
2019-01-25T04:23:06.613Z,66.35
2019-01-25T04:25:36.139Z,65.54
2019-01-25T04:28:05.697Z,65.44
2019-01-25T04:30:36.542Z,64.63
2019-01-25T04:33:06.215Z,63.23
2019-01-25T04:35:35.750Z,61.13
2019-01-25T04:38:05.426Z,59.66
2019-01-25T04:40:34.935Z,59.09
2019-01-25T04:43:04.680Z,58.70
2019-01-25T04:45:34.210Z,56.88
2019-01-25T04:48:03.741Z,55.22
2019-01-25T04:50:33.298Z,54.86
2019-01-25T04:53:02.847Z,54.80
2019-01-25T04:55:35.502Z,54.79
2019-01-25T04:58:11.425Z,54.38
2019-01-25T05:00:40.953Z,54.43
2019-01-25T05:03:10.574Z,54.48
2019-01-25T05:05:40.348Z,54.59
2019-01-25T05:08:16.061Z,54.52
2019-01-25T05:10:46.187Z,54.60
2019-01-25T05:13:15.806Z,54.37
2019-01-25T05:15:45.500Z,53.91
2019-01-25T05:18:15.258Z,53.71
2019-01-25T05:20:44.931Z,53.17
2019-01-25T05:23:14.454Z,53.57
2019-01-25T05:25:43.985Z,54.53
2019-01-25T05:28:22.239Z,54.47
2019-01-25T05:31:03.210Z,54.66
2019-01-25T05:33:34.162Z,55.06
2019-01-25T05:36:03.711Z,55.12
2019-01-25T05:38:33.227Z,55.90
2019-01-25T05:41:02.818Z,55.93
2019-01-25T05:43:40.368Z,56.53
2019-01-25T05:46:11.315Z,57.15
2019-01-25T05:48:40.821Z,57.26
2019-01-25T05:51:10.425Z,58.31
2019-01-25T05:53:43.055Z,60.52
2019-01-25T05:56:12.623Z,60.73
2019-01-25T05:58:42.130Z,61.33
2019-01-25T06:01:11.642Z,61.14
2019-01-25T06:03:42.523Z,61.98
2019-01-25T06:06:12.088Z,62.14
2019-01-25T06:08:44.000Z,62.27
2019-01-25T06:11:13.815Z,62.38
2019-01-25T06:13:46.961Z,61.79
2019-01-25T06:16:17.046Z,62.11
2019-01-25T06:18:46.582Z,62.37
2019-01-25T06:21:16.105Z,62.15
2019-01-25T06:23:45.689Z,61.68
2019-01-25T06:26:15.546Z,60.79
2019-01-25T06:28:50.796Z,59.58
2019-01-25T06:31:21.318Z,59.23
2019-01-25T06:33:50.839Z,60.11
2019-01-25T06:36:20.574Z,60.61
2019-01-25T06:38:50.175Z,60.47
2019-01-25T06:41:19.696Z,60.46
2019-01-25T06:43:49.232Z,60.01
2019-01-25T06:46:18.802Z,59.27
2019-01-25T06:48:48.341Z,58.75
2019-01-25T06:51:17.861Z,59.54
2019-01-25T06:53:47.470Z,59.74
2019-01-25T06:56:16.969Z,59.66
2019-01-25T06:59:01.952Z,60.46
2019-01-25T07:01:39.894Z,60.70
2019-01-25T07:04:09.477Z,59.97
2019-01-25T07:06:39.120Z,58.58
2019-01-25T07:09:11.370Z,56.76
2019-01-25T07:11:42.259Z,57.05
2019-01-25T07:14:12.264Z,57.34
2019-01-25T07:16:41.875Z,58.01
2019-01-25T07:19:11.327Z,59.25
2019-01-25T07:21:40.819Z,60.30
2019-01-25T07:24:10.398Z,60.60
2019-01-25T07:26:39.898Z,61.36
2019-01-25T07:29:09.468Z,61.04
2019-01-25T07:31:38.954Z,60.50
2019-01-25T07:34:09.008Z,61.00
2019-01-25T07:36:38.561Z,61.18
2019-01-25T07:39:31.802Z,60.70
2019-01-25T07:42:02.353Z,60.24
2019-01-25T07:44:32.089Z,60.37
2019-01-25T07:47:01.648Z,61.37
2019-01-25T07:49:31.221Z,62.09
2019-01-25T07:52:00.720Z,63.35
2019-01-25T07:54:30.240Z,64.46
2019-01-25T07:57:00.242Z,67.70
2019-01-25T07:59:30.104Z,70.70
2019-01-25T08:01:59.572Z,71.52
2019-01-25T08:04:29.122Z,70.38
2019-01-25T08:06:58.837Z,71.69
2019-01-25T08:09:28.373Z,72.88
2019-01-25T08:11:57.979Z,71.84
2019-01-25T08:14:27.494Z,73.08
2019-01-25T08:16:57.033Z,73.35
2019-01-25T08:19:26.666Z,73.51
2019-01-25T08:21:56.301Z,74.17
2019-01-25T08:24:25.936Z,74.11
2019-01-25T08:26:55.429Z,76.26
2019-01-25T08:29:28.239Z,75.88
2019-01-25T08:31:56.285Z,76.63
2019-01-25T08:34:25.840Z,75.82
2019-01-25T08:36:55.411Z,76.06
2019-01-25T08:39:24.909Z,77.79
2019-01-25T08:41:54.415Z,77.18
2019-01-25T08:44:24.000Z,76.70
2019-01-25T08:46:53.554Z,77.09
2019-01-25T08:49:23.150Z,76.86
2019-01-25T08:51:52.700Z,77.01
2019-01-25T08:54:22.266Z,76.60
2019-01-25T08:56:51.838Z,76.12
2019-01-25T08:59:21.373Z,76.53
2019-01-25T09:01:52.127Z,77.40
2019-01-25T09:04:21.627Z,78.40
2019-01-25T09:06:51.282Z,78.01
2019-01-25T09:09:20.765Z,76.76
2019-01-25T09:11:50.268Z,76.64
2019-01-25T09:14:19.803Z,74.95
2019-01-25T09:16:49.324Z,75.73
2019-01-25T09:19:18.821Z,74.65
2019-01-25T09:21:48.383Z,74.72
2019-01-25T09:24:17.887Z,75.49
2019-01-25T09:26:47.434Z,75.25
2019-01-25T09:29:16.955Z,75.26
2019-01-25T09:31:46.481Z,75.22
2019-01-25T09:34:16.073Z,76.34
2019-01-25T09:36:45.601Z,75.06
2019-01-25T09:39:15.104Z,77.03
2019-01-25T09:41:44.664Z,76.89
2019-01-25T09:44:14.168Z,76.04
2019-01-25T09:46:43.665Z,74.44
2019-01-25T09:49:13.224Z,72.82
2019-01-25T09:51:43.030Z,72.47
2019-01-25T09:54:12.580Z,71.92
2019-01-25T09:56:42.160Z,72.48
2019-01-25T09:59:13.034Z,73.50
2019-01-25T10:01:42.543Z,73.41
2019-01-25T10:04:12.044Z,72.87
2019-01-25T10:06:41.611Z,73.05
2019-01-25T10:09:11.170Z,72.34
2019-01-25T10:11:40.737Z,71.73
2019-01-25T10:14:10.256Z,71.18
2019-01-25T10:16:39.784Z,70.89
2019-01-25T10:19:09.349Z,71.10
2019-01-25T10:21:38.951Z,70.68
2019-01-25T10:24:08.467Z,70.78
2019-01-25T10:26:38.020Z,70.08
2019-01-25T10:29:07.547Z,69.73
2019-01-25T10:31:37.210Z,69.48
2019-01-25T10:34:06.810Z,69.01
2019-01-25T10:36:36.336Z,68.83
2019-01-25T10:39:08.743Z,68.30
2019-01-25T10:41:38.345Z,66.02
2019-01-25T10:44:09.208Z,66.62
2019-01-25T10:46:38.748Z,67.33
2019-01-25T10:49:08.311Z,68.14
2019-01-25T10:51:37.872Z,67.40
2019-01-25T10:54:07.796Z,69.40
2019-01-25T10:56:41.754Z,69.49
2019-01-25T10:59:08.624Z,70.01
2019-01-25T11:01:39.353Z,71.25
2019-01-25T11:04:11.503Z,72.65
2019-01-25T11:06:40.298Z,74.69
2019-01-25T11:09:10.507Z,77.41
2019-01-25T11:11:40.254Z,77.44
2019-01-25T11:14:09.765Z,75.90
2019-01-25T11:16:39.260Z,73.56
2019-01-25T11:19:08.818Z,72.37
2019-01-25T11:21:38.336Z,72.01
2019-01-25T11:24:08.051Z,71.27
2019-01-25T11:26:37.670Z,70.37
2019-01-25T11:29:07.189Z,70.44
2019-01-25T11:31:36.691Z,69.92
2019-01-25T11:34:06.245Z,68.17
2019-01-25T11:36:35.795Z,67.96
2019-01-25T11:39:09.937Z,67.63
2019-01-25T11:41:39.436Z,66.39
2019-01-25T11:44:09.081Z,64.85
2019-01-25T11:46:38.635Z,64.64
2019-01-25T11:49:08.131Z,63.15
2019-01-25T11:51:37.684Z,61.23
2019-01-25T11:54:07.199Z,60.87
2019-01-25T11:56:36.693Z,61.46
2019-01-25T11:59:06.311Z,61.78
2019-01-25T12:01:35.827Z,61.31
2019-01-25T12:04:05.596Z,61.21
2019-01-25T12:06:35.151Z,61.96
2019-01-25T12:09:07.398Z,63.29
2019-01-25T12:11:36.940Z,62.78
2019-01-25T12:14:06.655Z,62.75
2019-01-25T12:16:36.166Z,63.38
2019-01-25T12:19:05.850Z,63.40
2019-01-25T12:21:35.420Z,63.39
2019-01-25T12:24:05.138Z,61.26
2019-01-25T12:26:34.724Z,59.71
2019-01-25T12:29:04.227Z,58.91
2019-01-25T12:31:33.728Z,59.18
2019-01-25T12:34:03.289Z,58.39
2019-01-25T12:36:32.937Z,57.07
2019-01-25T12:39:02.536Z,55.93
2019-01-25T12:41:32.092Z,54.75
2019-01-25T12:44:01.588Z,54.49
2019-01-25T12:46:32.120Z,54.43
2019-01-25T12:49:01.835Z,54.60
2019-01-25T12:51:49.112Z,53.81
2019-01-25T12:54:18.843Z,52.92
2019-01-25T12:56:48.405Z,53.42
2019-01-25T12:59:17.993Z,53.67
2019-01-25T13:01:47.573Z,53.91
2019-01-25T13:04:17.099Z,54.17
2019-01-25T13:06:46.707Z,54.15
2019-01-25T13:09:16.276Z,53.29
2019-01-25T13:11:48.262Z,52.68
2019-01-25T13:14:17.858Z,51.71
2019-01-25T13:16:47.401Z,47.90
2019-01-25T13:19:18.187Z,45.84
2019-01-25T13:21:47.704Z,44.16
2019-01-25T13:24:17.236Z,43.97
2019-01-25T13:26:48.082Z,44.21
2019-01-25T13:29:17.715Z,44.02
2019-01-25T13:31:47.242Z,43.92
2019-01-25T13:34:16.895Z,43.91
2019-01-25T13:36:46.600Z,43.98
2019-01-25T13:39:16.213Z,43.89
2019-01-25T13:41:45.727Z,43.95
2019-01-25T13:44:15.239Z,44.04
2019-01-25T13:46:44.770Z,44.31
2019-01-25T13:49:14.268Z,44.66
2019-01-25T13:51:43.820Z,44.59
2019-01-25T13:54:13.335Z,44.40
2019-01-25T13:56:42.843Z,45.34
2019-01-25T13:59:12.442Z,45.47
2019-01-25T14:01:42.014Z,45.16
2019-01-25T14:04:11.518Z,45.32
2019-01-25T14:06:41.097Z,45.71
2019-01-25T14:09:11.001Z,46.54
2019-01-25T14:11:40.576Z,46.68
2019-01-25T14:14:10.080Z,46.90
2019-01-25T14:16:39.593Z,47.05
2019-01-25T14:19:09.157Z,48.07
2019-01-25T14:21:38.663Z,49.26
2019-01-25T14:24:08.822Z,49.21
2019-01-25T14:26:38.612Z,50.13
2019-01-25T14:29:08.187Z,50.25
2019-01-25T14:31:37.685Z,49.50
2019-01-25T14:34:07.364Z,49.12
2019-01-25T14:36:36.888Z,49.05
2019-01-25T14:39:08.869Z,48.36
2019-01-25T14:41:38.370Z,47.58
2019-01-25T14:44:07.872Z,46.71
2019-01-25T14:46:38.764Z,46.28
2019-01-25T14:49:08.285Z,44.90
2019-01-25T14:51:39.117Z,43.92
2019-01-25T14:54:08.669Z,43.76
2019-01-25T14:56:38.193Z,44.51
2019-01-25T14:59:07.794Z,43.51
2019-01-25T15:01:37.361Z,43.21
2019-01-25T15:04:06.917Z,41.04
2019-01-25T15:06:36.502Z,35.71
2019-01-25T15:09:09.453Z,33.55
2019-01-25T15:11:38.959Z,31.65
2019-01-25T15:14:08.730Z,29.75
2019-01-25T15:16:38.246Z,27.78
2019-01-25T15:19:09.193Z,19.20
2019-01-25T15:21:38.915Z,13.59
2019-01-25T15:24:08.439Z,0.00
2019-01-25T15:26:37.951Z,0.00
2019-01-25T15:29:07.495Z,0.00
2019-01-25T15:31:36.988Z,0.00
2019-01-25T15:34:06.594Z,0.00
2019-01-25T15:36:36.240Z,0.00
2019-01-25T15:39:09.844Z,0.00
2019-01-25T15:41:39.447Z,0.00
2019-01-25T15:44:10.146Z,0.00
2019-01-25T15:46:40.118Z,0.00
2019-01-25T15:49:10.038Z,0.00
2019-01-25T15:51:41.219Z,0.00
2019-01-25T15:54:10.936Z,0.00
2019-01-25T15:56:40.633Z,0.00
2019-01-25T15:59:10.283Z,0.00
2019-01-25T16:01:39.836Z,0.00
2019-01-25T16:04:09.353Z,0.00
2019-01-25T16:06:38.925Z,0.00
2019-01-25T16:09:14.075Z,0.00
2019-01-25T16:11:40.831Z,0.00
2019-01-25T16:14:17.670Z,0.00
2019-01-25T16:16:41.676Z,0.00
2019-01-25T16:19:11.181Z,0.00
2019-01-25T16:21:40.893Z,0.00
2019-01-25T16:24:10.430Z,0.00
2019-01-25T16:26:39.935Z,0.00
2019-01-25T16:29:09.445Z,0.00
2019-01-25T16:31:38.988Z,0.00
2019-01-25T16:34:08.497Z,0.00
2019-01-25T16:36:37.996Z,0.00
2019-01-25T16:39:09.356Z,0.00
2019-01-25T16:41:38.884Z,0.00
2019-01-25T16:44:08.395Z,0.00
2019-01-25T16:46:39.145Z,0.00
2019-01-25T16:49:08.654Z,0.00
2019-01-25T16:51:38.251Z,0.00
2019-01-25T16:54:08.432Z,0.00
2019-01-25T16:56:37.941Z,0.00
2019-01-25T16:59:07.708Z,0.00
2019-01-25T17:01:37.261Z,2.02
2019-01-25T17:04:06.787Z,2.73
2019-01-25T17:06:36.290Z,2.11
2019-01-25T17:09:08.364Z,2.00
2019-01-25T17:11:37.889Z,3.50
2019-01-25T17:14:07.432Z,5.32
2019-01-25T17:16:37.019Z,6.08
2019-01-25T17:19:06.543Z,6.04
2019-01-25T17:21:36.283Z,6.60
2019-01-25T17:24:06.074Z,6.65
2019-01-25T17:26:35.591Z,6.41
2019-01-25T17:29:05.421Z,5.94
2019-01-25T17:31:34.975Z,6.25
2019-01-25T17:34:05.072Z,6.17
2019-01-25T17:36:34.549Z,6.02
2019-01-25T17:39:05.638Z,6.31
2019-01-25T17:41:35.191Z,7.42
2019-01-25T17:44:04.856Z,8.05
2019-01-25T17:46:34.454Z,9.10
2019-01-25T17:49:03.966Z,10.30
2019-01-25T17:51:33.499Z,27.57
2019-01-25T17:54:03.060Z,28.82
2019-01-25T17:56:32.576Z,29.66
2019-01-25T17:59:02.200Z,30.42
2019-01-25T18:01:31.752Z,31.43
2019-01-25T18:04:01.267Z,31.17
2019-01-25T18:06:30.788Z,31.28
2019-01-25T18:09:00.389Z,32.75
2019-01-25T18:11:29.925Z,33.45
2019-01-25T18:13:59.448Z,35.06
2019-01-25T18:16:29.033Z,37.50
2019-01-25T18:18:58.578Z,37.23
2019-01-25T18:21:28.185Z,36.49
2019-01-25T18:23:57.802Z,36.97
2019-01-25T18:26:27.574Z,36.46
2019-01-25T18:29:10.971Z,35.70
2019-01-25T18:31:40.514Z,36.00
2019-01-25T18:34:10.130Z,35.97
2019-01-25T18:36:39.661Z,36.25
2019-01-25T18:39:10.356Z,37.33
2019-01-25T18:41:41.168Z,37.36
2019-01-25T18:44:10.728Z,37.31
2019-01-25T18:46:40.248Z,36.79
2019-01-25T18:49:10.016Z,35.71
2019-01-25T18:51:39.604Z,35.71
2019-01-25T18:54:09.207Z,35.60
2019-01-25T18:56:38.813Z,35.51
2019-01-25T18:59:08.395Z,36.75
2019-01-25T19:01:38.140Z,37.84
2019-01-25T19:04:07.686Z,38.77
2019-01-25T19:06:37.198Z,39.11
2019-01-25T19:09:09.446Z,39.90
2019-01-25T19:11:38.945Z,40.25
2019-01-25T19:14:08.605Z,41.76
2019-01-25T19:16:39.603Z,42.41
2019-01-25T19:19:09.137Z,43.00
2019-01-25T19:21:38.685Z,42.72
2019-01-25T19:24:08.249Z,43.71
2019-01-25T19:26:37.801Z,45.52
2019-01-25T19:29:07.434Z,45.86
2019-01-25T19:31:38.621Z,46.59
2019-01-25T19:34:08.159Z,47.56
2019-01-25T19:36:37.704Z,50.09
2019-01-25T19:39:11.664Z,50.42
2019-01-25T19:41:41.232Z,50.23
2019-01-25T19:44:11.052Z,49.79
2019-01-25T19:46:40.747Z,49.00
2019-01-25T19:49:10.379Z,48.18
2019-01-25T19:51:40.332Z,48.54
2019-01-25T19:54:10.121Z,47.54
2019-01-25T19:56:39.677Z,46.21
2019-01-25T19:59:09.317Z,45.44
2019-01-25T20:01:38.905Z,43.80
2019-01-25T20:04:08.586Z,44.11
2019-01-25T20:06:38.153Z,44.65
2019-01-25T20:09:10.949Z,43.40
2019-01-25T20:11:40.508Z,41.41
2019-01-25T20:14:10.091Z,40.09
2019-01-25T20:16:39.717Z,39.92
2019-01-25T20:19:09.449Z,40.98
2019-01-25T20:21:39.000Z,42.93
2019-01-25T20:24:08.582Z,43.43
2019-01-25T20:26:38.513Z,44.45
2019-01-25T20:29:08.162Z,45.25
2019-01-25T20:31:39.148Z,44.93
2019-01-25T20:34:08.754Z,45.08
2019-01-25T20:36:38.291Z,45.86
2019-01-25T20:39:10.553Z,44.78
2019-01-25T20:41:40.129Z,44.32
2019-01-25T20:44:09.700Z,44.38
2019-01-25T20:46:39.294Z,45.10
2019-01-25T20:49:08.858Z,44.82
2019-01-25T20:51:38.387Z,45.16
2019-01-25T20:54:08.159Z,45.19
2019-01-25T20:56:37.712Z,45.17
2019-01-25T20:59:08.843Z,45.08
2019-01-25T21:01:38.377Z,44.47
2019-01-25T21:04:08.238Z,44.34
2019-01-25T21:06:37.790Z,43.73
2019-01-25T21:09:09.892Z,43.04
2019-01-25T21:11:39.974Z,43.15
2019-01-25T21:14:09.681Z,43.61
2019-01-25T21:16:39.203Z,43.97
2019-01-25T21:19:08.753Z,44.09
2019-01-25T21:21:39.548Z,44.67
2019-01-25T21:24:10.055Z,44.43
2019-01-25T21:26:39.770Z,44.60
2019-01-25T21:29:10.709Z,44.24
2019-01-25T21:31:40.236Z,43.57
2019-01-25T21:34:09.785Z,42.36
2019-01-25T21:36:40.229Z,42.43
2019-01-25T21:39:10.680Z,41.47
2019-01-25T21:41:40.208Z,40.17
2019-01-25T21:44:09.795Z,40.45
2019-01-25T21:46:40.384Z,40.06
2019-01-25T21:49:10.314Z,40.02
2019-01-25T21:51:46.352Z,38.62
2019-01-25T21:54:16.021Z,38.80
2019-01-25T21:56:45.696Z,39.31
2019-01-25T21:59:15.324Z,39.25
2019-01-25T22:01:44.969Z,39.21
2019-01-25T22:04:14.631Z,38.91
2019-01-25T22:06:45.636Z,39.31
2019-01-25T22:09:15.160Z,39.37
2019-01-25T22:11:45.192Z,39.05
2019-01-25T22:14:14.761Z,39.40
2019-01-25T22:16:44.828Z,39.26
2019-01-25T22:19:14.771Z,39.67
2019-01-25T22:21:44.295Z,39.50
2019-01-25T22:24:14.230Z,39.39
2019-01-25T22:26:43.836Z,39.80
2019-01-25T22:29:13.370Z,40.14
2019-01-25T22:31:42.914Z,40.22
2019-01-25T22:34:13.311Z,40.90
2019-01-25T22:36:42.812Z,41.41
2019-01-25T22:39:12.804Z,41.93
2019-01-25T22:41:42.338Z,42.95
2019-01-25T22:44:11.894Z,43.81
2019-01-25T22:46:41.444Z,43.46
2019-01-25T22:49:10.990Z,43.58
2019-01-25T22:51:40.658Z,41.75
2019-01-25T22:54:10.224Z,40.98
2019-01-25T22:56:39.766Z,40.31
2019-01-25T22:59:09.322Z,40.29
2019-01-25T23:01:38.995Z,39.93
2019-01-25T23:04:48.676Z,39.62
2019-01-25T23:07:24.090Z,39.70
2019-01-25T23:10:07.379Z,39.72
2019-01-25T23:12:37.087Z,39.83
2019-01-25T23:15:09.692Z,39.97
2019-01-25T23:17:39.332Z,39.62
2019-01-25T23:22:41.467Z,38.55
2019-01-25T23:25:11.443Z,37.51
2019-01-25T23:27:40.972Z,37.51
2019-01-25T23:30:16.050Z,37.38
2019-01-25T23:32:45.595Z,36.88
2019-01-25T23:35:15.222Z,36.29
2019-01-25T23:37:44.764Z,36.77
2019-01-25T23:40:15.830Z,36.95
2019-01-25T23:42:45.363Z,36.37
2019-01-25T23:45:14.867Z,35.81
2019-01-25T23:47:44.432Z,34.13
2019-01-25T23:50:14.170Z,33.09
2019-01-25T23:52:43.769Z,33.36
2019-01-25T23:55:13.512Z,32.60
2019-01-25T23:57:43.065Z,33.21
